createdAt,value
2023-07-17T00:01:48.764Z,100.00
2023-07-17T00:04:16.323Z,100.00
2023-07-17T00:06:43.750Z,100.00
2023-07-17T00:09:14.492Z,100.00
2023-07-17T00:11:42.098Z,100.00
2023-07-17T00:14:09.609Z,100.00
2023-07-17T00:16:37.144Z,100.00
2023-07-17T00:19:04.721Z,100.00
2023-07-17T00:21:32.348Z,100.00
2023-07-17T00:24:02.990Z,100.00
2023-07-17T00:26:31.620Z,100.00
2023-07-17T00:29:24.744Z,100.00
2023-07-17T00:31:53.416Z,100.00
2023-07-17T00:34:21.125Z,100.00
2023-07-17T00:36:49.855Z,100.00
2023-07-17T00:39:20.423Z,100.00
2023-07-17T00:41:51.441Z,100.00
2023-07-17T00:44:19.160Z,100.00
2023-07-17T00:46:49.471Z,100.00
2023-07-17T00:49:18.819Z,100.00
2023-07-17T00:51:47.513Z,100.00
2023-07-17T00:54:18.318Z,100.00
2023-07-17T00:56:47.444Z,100.00
2023-07-17T00:59:16.449Z,100.00
2023-07-17T01:01:45.058Z,100.00
2023-07-17T01:04:12.847Z,100.00
2023-07-17T01:06:40.563Z,100.00
2023-07-17T01:09:09.123Z,100.00
2023-07-17T01:11:36.643Z,100.00
2023-07-17T01:14:04.553Z,100.00
2023-07-17T01:16:32.557Z,100.00
2023-07-17T01:19:00.091Z,100.00
2023-07-17T01:21:30.986Z,100.00
2023-07-17T01:23:58.494Z,100.00
2023-07-17T01:26:26.061Z,100.00
2023-07-17T01:28:53.752Z,100.00
2023-07-17T01:31:21.343Z,100.00
2023-07-17T01:33:49.083Z,100.00
2023-07-17T01:36:17.106Z,100.00
2023-07-17T01:38:44.851Z,100.00
2023-07-17T01:41:12.993Z,100.00
2023-07-17T01:43:40.524Z,100.00
2023-07-17T01:46:08.087Z,100.00
2023-07-17T01:48:37.426Z,100.00
2023-07-17T01:51:04.983Z,100.00
2023-07-17T01:53:32.485Z,100.00
2023-07-17T01:56:01.721Z,100.00
2023-07-17T01:58:30.452Z,100.00
2023-07-17T02:00:58.587Z,100.00
2023-07-17T02:03:27.069Z,100.00
2023-07-17T02:05:56.927Z,100.00
2023-07-17T02:08:25.427Z,100.00
2023-07-17T02:10:53.401Z,100.00
2023-07-17T02:13:20.910Z,100.00
2023-07-17T02:15:48.636Z,100.00
2023-07-17T02:18:16.183Z,100.00
2023-07-17T02:20:43.815Z,100.00
2023-07-17T02:23:11.454Z,100.00
2023-07-17T02:25:39.323Z,100.00
2023-07-17T02:28:06.911Z,100.00
2023-07-17T02:30:34.372Z,100.00
2023-07-17T02:33:01.971Z,100.00
2023-07-17T02:35:29.597Z,100.00
2023-07-17T02:37:57.214Z,100.00
2023-07-17T02:40:25.004Z,100.00
2023-07-17T02:42:52.562Z,100.00
2023-07-17T02:45:20.145Z,100.00
2023-07-17T02:47:47.793Z,100.00
2023-07-17T02:50:15.483Z,100.00
2023-07-17T02:52:42.971Z,100.00
2023-07-17T02:55:10.794Z,100.00
2023-07-17T02:57:38.728Z,100.00
2023-07-17T03:00:13.597Z,100.00
2023-07-17T03:02:42.985Z,100.00
2023-07-17T03:05:13.013Z,100.00
2023-07-17T03:07:43.079Z,100.00
2023-07-17T03:10:12.488Z,100.00
2023-07-17T03:12:40.707Z,100.00
2023-07-17T03:15:10.421Z,100.00
2023-07-17T03:17:38.164Z,100.00
2023-07-17T03:20:10.556Z,100.00
2023-07-17T03:22:39.482Z,100.00
2023-07-17T03:25:08.136Z,100.00
2023-07-17T03:27:35.681Z,100.00
2023-07-17T03:30:03.459Z,100.00
2023-07-17T03:32:36.535Z,100.00
2023-07-17T03:35:04.536Z,100.00
2023-07-17T03:37:32.411Z,100.00
2023-07-17T03:40:04.859Z,100.00
2023-07-17T03:42:32.697Z,100.00
2023-07-17T03:45:00.886Z,100.00
2023-07-17T03:47:33.370Z,100.00
2023-07-17T03:50:01.245Z,100.00
2023-07-17T03:52:28.987Z,100.00
2023-07-17T03:54:56.499Z,100.00
2023-07-17T03:57:23.981Z,100.00
2023-07-17T03:59:54.441Z,100.00
2023-07-17T04:02:44.465Z,100.00
2023-07-17T04:05:31.463Z,100.00
2023-07-17T04:07:59.019Z,100.00
2023-07-17T04:10:29.252Z,100.00
2023-07-17T04:12:57.270Z,100.00
2023-07-17T04:15:25.434Z,100.00
2023-07-17T04:17:53.081Z,100.00
2023-07-17T04:20:20.861Z,100.00
2023-07-17T04:22:48.927Z,100.00
2023-07-17T04:25:19.057Z,100.00
2023-07-17T04:27:46.934Z,100.00
2023-07-17T04:30:16.019Z,100.00
2023-07-17T04:32:43.705Z,100.00
2023-07-17T04:35:11.386Z,100.00
2023-07-17T04:37:43.271Z,100.00
2023-07-17T04:40:20.823Z,100.00
2023-07-17T04:42:50.162Z,100.00
2023-07-17T04:45:20.973Z,100.00
2023-07-17T04:47:50.668Z,100.00
2023-07-17T04:50:18.350Z,100.00
2023-07-17T04:52:45.889Z,100.00
2023-07-17T04:55:13.320Z,100.00
2023-07-17T04:57:41.187Z,100.00
2023-07-17T05:00:10.920Z,100.00
2023-07-17T05:02:38.878Z,100.00
2023-07-17T05:05:07.368Z,100.00
2023-07-17T05:07:35.170Z,100.00
2023-07-17T05:10:04.389Z,100.00
2023-07-17T05:12:33.865Z,100.00
2023-07-17T05:15:01.511Z,100.00
2023-07-17T05:17:30.816Z,100.00
2023-07-17T05:19:58.069Z,100.00
2023-07-17T05:22:27.589Z,100.00
2023-07-17T05:24:55.136Z,100.00
2023-07-17T05:27:23.394Z,100.00
2023-07-17T05:29:50.750Z,100.00
2023-07-17T05:32:18.402Z,100.00
2023-07-17T05:34:46.393Z,100.00
2023-07-17T05:37:14.474Z,100.00
2023-07-17T05:39:41.910Z,100.00
2023-07-17T05:42:09.418Z,100.00
2023-07-17T05:44:37.591Z,100.00
2023-07-17T05:47:07.008Z,100.00
2023-07-17T05:49:36.009Z,100.00
2023-07-17T05:52:03.584Z,100.00
2023-07-17T05:54:31.271Z,100.00
2023-07-17T05:56:58.538Z,100.00
2023-07-17T05:59:26.112Z,100.00
2023-07-17T06:01:56.637Z,100.00
2023-07-17T06:04:23.910Z,100.00
2023-07-17T06:06:51.219Z,100.00
2023-07-17T06:09:18.494Z,100.00
2023-07-17T06:11:45.712Z,100.00
2023-07-17T06:14:13.070Z,100.00
2023-07-17T06:16:40.308Z,100.00
2023-07-17T06:19:07.562Z,99.26
2023-07-17T06:21:34.806Z,96.18
2023-07-17T06:24:02.138Z,93.83
2023-07-17T06:26:29.445Z,93.66
2023-07-17T06:28:56.583Z,91.79
2023-07-17T06:31:23.861Z,97.17
2023-07-17T06:33:51.145Z,95.86
2023-07-17T06:36:18.389Z,95.49
2023-07-17T06:38:45.670Z,94.24
2023-07-17T06:41:12.906Z,92.45
2023-07-17T06:43:40.679Z,91.15
2023-07-17T06:46:08.148Z,86.71
2023-07-17T06:48:35.856Z,85.41
2023-07-17T06:51:05.961Z,80.23
2023-07-17T06:53:33.268Z,77.86
2023-07-17T06:56:01.308Z,77.55
2023-07-17T06:58:32.029Z,73.77
2023-07-17T07:00:59.582Z,71.96
2023-07-17T07:03:27.823Z,72.47
2023-07-17T07:05:55.638Z,65.24
2023-07-17T07:08:26.776Z,62.40
2023-07-17T07:10:57.381Z,60.76
2023-07-17T07:13:25.696Z,61.86
2023-07-17T07:15:53.556Z,62.77
2023-07-17T07:18:22.729Z,61.88
2023-07-17T07:20:52.731Z,65.96
2023-07-17T07:23:20.757Z,64.58
2023-07-17T07:25:48.568Z,60.03
2023-07-17T07:28:16.364Z,59.70
2023-07-17T07:30:43.763Z,62.41
2023-07-17T07:33:11.248Z,61.92
2023-07-17T07:35:38.841Z,63.40
2023-07-17T07:38:06.191Z,61.41
2023-07-17T07:40:33.560Z,61.38
2023-07-17T07:43:00.848Z,60.99
2023-07-17T07:45:28.130Z,60.82
2023-07-17T07:47:58.197Z,58.88
2023-07-17T07:50:25.777Z,59.95
2023-07-17T07:52:55.334Z,58.35
2023-07-17T07:55:23.422Z,60.29
2023-07-17T07:57:51.115Z,62.67
2023-07-17T08:00:18.735Z,59.37
2023-07-17T08:02:46.160Z,60.93
2023-07-17T08:05:13.724Z,60.90
2023-07-17T08:07:41.263Z,59.72
2023-07-17T08:10:08.776Z,58.23
2023-07-17T08:12:36.325Z,59.06
2023-07-17T08:15:03.940Z,60.30
2023-07-17T08:17:31.371Z,60.38
2023-07-17T08:19:59.030Z,62.64
2023-07-17T08:22:26.662Z,62.47
2023-07-17T08:24:54.147Z,60.30
2023-07-17T08:27:24.824Z,60.89
2023-07-17T08:29:52.417Z,61.80
2023-07-17T08:32:19.796Z,58.51
2023-07-17T08:34:47.318Z,56.97
2023-07-17T08:37:14.682Z,59.85
2023-07-17T08:39:42.159Z,58.10
2023-07-17T08:42:09.639Z,57.22
2023-07-17T08:44:37.565Z,57.66
2023-07-17T08:47:08.992Z,55.44
2023-07-17T08:49:37.112Z,56.82
2023-07-17T08:52:07.542Z,57.31
2023-07-17T08:54:35.180Z,55.66
2023-07-17T08:57:05.409Z,56.43
2023-07-17T08:59:33.771Z,57.93
2023-07-17T09:02:01.865Z,55.70
2023-07-17T09:04:31.118Z,57.24
2023-07-17T09:06:58.703Z,54.61
2023-07-17T09:09:26.173Z,54.67
2023-07-17T09:12:06.642Z,53.65
2023-07-17T09:14:34.372Z,54.15
2023-07-17T09:17:03.716Z,55.38
2023-07-17T09:19:35.681Z,53.96
2023-07-17T09:22:03.897Z,54.03
2023-07-17T09:24:33.566Z,54.93
2023-07-17T09:27:01.107Z,56.34
2023-07-17T09:29:28.570Z,55.94
2023-07-17T09:31:55.968Z,55.02
2023-07-17T09:34:23.530Z,53.76
2023-07-17T09:36:52.519Z,54.74
2023-07-17T09:39:20.480Z,56.43
2023-07-17T09:41:47.830Z,57.49
2023-07-17T09:44:19.239Z,55.57
2023-07-17T09:46:46.956Z,54.13
2023-07-17T09:49:14.649Z,58.04
2023-07-17T09:51:42.391Z,56.21
2023-07-17T09:54:10.229Z,56.39
2023-07-17T09:56:39.160Z,57.30
2023-07-17T09:59:07.515Z,57.88
2023-07-17T10:01:36.317Z,59.28
2023-07-17T10:04:07.206Z,59.85
2023-07-17T10:06:34.928Z,58.17
2023-07-17T10:09:03.047Z,57.59
2023-07-17T10:11:30.596Z,56.05
2023-07-17T10:13:58.003Z,57.58
2023-07-17T10:16:27.882Z,54.89
2023-07-17T10:18:56.490Z,56.87
2023-07-17T10:21:23.918Z,54.46
2023-07-17T10:23:52.031Z,57.14
2023-07-17T10:26:22.783Z,56.21
2023-07-17T10:28:51.034Z,52.76
2023-07-17T10:31:22.895Z,54.42
2023-07-17T10:33:53.423Z,58.65
2023-07-17T10:36:37.418Z,55.64
2023-07-17T10:39:05.435Z,54.63
2023-07-17T10:41:33.159Z,56.00
2023-07-17T10:44:19.046Z,56.52
2023-07-17T10:46:47.656Z,54.87
2023-07-17T10:49:16.620Z,55.16
2023-07-17T10:51:45.616Z,51.91
2023-07-17T10:54:13.697Z,52.90
2023-07-17T10:56:42.319Z,55.23
2023-07-17T10:59:10.397Z,52.63
2023-07-17T11:01:37.924Z,52.18
2023-07-17T11:04:08.738Z,53.31
2023-07-17T11:06:36.224Z,55.51
2023-07-17T11:09:04.338Z,53.59
2023-07-17T11:11:33.376Z,55.11
2023-07-17T11:14:01.798Z,53.83
2023-07-17T11:16:29.623Z,54.99
2023-07-17T11:18:57.711Z,53.22
2023-07-17T11:21:26.560Z,53.16
2023-07-17T11:23:57.786Z,52.46
2023-07-17T11:26:30.101Z,52.75
2023-07-17T11:28:58.766Z,53.26
2023-07-17T11:31:26.687Z,56.64
2023-07-17T11:33:59.322Z,55.08
2023-07-17T11:36:47.198Z,52.62
2023-07-17T11:39:15.175Z,54.73
2023-07-17T11:41:47.273Z,55.29
2023-07-17T11:44:31.391Z,54.26
2023-07-17T11:46:59.929Z,56.45
2023-07-17T11:49:28.101Z,53.66
2023-07-17T11:51:56.547Z,55.50
2023-07-17T11:54:30.644Z,52.35
2023-07-17T11:57:04.363Z,52.71
2023-07-17T11:59:32.519Z,53.80
2023-07-17T12:02:00.319Z,54.69
2023-07-17T12:04:28.472Z,55.60
2023-07-17T12:06:56.526Z,54.84
2023-07-17T12:09:24.604Z,52.87
2023-07-17T12:11:52.057Z,53.38
2023-07-17T12:14:19.739Z,53.85
2023-07-17T12:16:48.054Z,52.56
2023-07-17T12:19:16.391Z,52.29
2023-07-17T12:21:44.392Z,50.65
2023-07-17T12:24:14.527Z,49.50
2023-07-17T12:26:43.193Z,50.97
2023-07-17T12:29:11.296Z,52.46
2023-07-17T12:31:41.352Z,49.55
2023-07-17T12:34:09.528Z,50.60
2023-07-17T12:36:37.729Z,49.92
2023-07-17T12:39:15.488Z,52.17
2023-07-17T12:41:43.256Z,53.63
2023-07-17T12:44:11.246Z,53.49
2023-07-17T12:46:38.751Z,52.31
2023-07-17T12:49:06.224Z,53.39
2023-07-17T12:51:42.428Z,51.14
2023-07-17T12:54:10.868Z,50.15
2023-07-17T12:56:38.356Z,52.20
2023-07-17T12:59:05.993Z,51.91
2023-07-17T13:01:33.610Z,53.77
2023-07-17T13:04:01.471Z,48.15
2023-07-17T13:06:29.308Z,51.49
2023-07-17T13:08:56.802Z,49.50
2023-07-17T13:11:24.317Z,48.19
2023-07-17T13:13:51.970Z,47.07
2023-07-17T13:16:19.989Z,45.58
2023-07-17T13:18:47.640Z,46.92
2023-07-17T13:21:15.058Z,45.42
2023-07-17T13:23:42.423Z,45.49
2023-07-17T13:26:09.820Z,46.38
2023-07-17T13:28:37.340Z,43.62
2023-07-17T13:31:10.158Z,47.27
2023-07-17T13:33:44.839Z,45.68
2023-07-17T13:36:12.612Z,43.56
2023-07-17T13:38:40.067Z,42.75
2023-07-17T13:41:12.164Z,43.63
2023-07-17T13:43:41.191Z,41.77
2023-07-17T13:46:08.885Z,42.77
2023-07-17T13:48:36.352Z,41.05
2023-07-17T13:51:04.407Z,40.69
2023-07-17T13:53:31.891Z,42.80
2023-07-17T13:55:59.330Z,41.01
2023-07-17T13:58:27.496Z,40.86
2023-07-17T14:00:55.206Z,39.04
2023-07-17T14:03:22.729Z,38.35
2023-07-17T14:05:52.830Z,39.83
2023-07-17T14:08:20.752Z,39.16
2023-07-17T14:10:48.510Z,39.95
2023-07-17T14:13:15.873Z,39.85
2023-07-17T14:15:43.453Z,39.82
2023-07-17T14:18:11.238Z,39.50
2023-07-17T14:20:47.482Z,37.59
2023-07-17T14:23:23.920Z,38.00
2023-07-17T14:25:51.291Z,37.73
2023-07-17T14:28:18.959Z,38.16
2023-07-17T14:30:46.411Z,37.81
2023-07-17T14:33:14.933Z,38.81
2023-07-17T14:35:42.936Z,38.80
2023-07-17T14:38:10.356Z,39.03
2023-07-17T14:40:41.284Z,37.68
2023-07-17T14:43:08.713Z,38.71
2023-07-17T14:45:36.305Z,40.63
2023-07-17T14:48:09.094Z,38.38
2023-07-17T14:50:36.617Z,40.04
2023-07-17T14:53:03.961Z,38.14
2023-07-17T14:55:31.428Z,38.31
2023-07-17T14:57:58.774Z,37.98
2023-07-17T15:00:25.976Z,37.86
2023-07-17T15:02:53.443Z,39.14
2023-07-17T15:05:21.664Z,37.29
2023-07-17T15:07:49.125Z,38.33
2023-07-17T15:10:17.100Z,37.51
2023-07-17T15:12:44.650Z,38.16
2023-07-17T15:15:14.585Z,38.46
2023-07-17T15:17:42.385Z,40.08
2023-07-17T15:20:10.225Z,39.49
2023-07-17T15:22:42.170Z,37.78
2023-07-17T15:25:10.204Z,40.05
2023-07-17T15:27:40.663Z,39.20
2023-07-17T15:30:08.405Z,40.42
2023-07-17T15:32:35.855Z,38.43
2023-07-17T15:35:03.509Z,39.18
2023-07-17T15:37:30.922Z,38.74
2023-07-17T15:39:58.494Z,38.85
2023-07-17T15:42:25.937Z,38.88
2023-07-17T15:44:53.468Z,38.41
2023-07-17T15:47:20.759Z,38.86
2023-07-17T15:49:48.151Z,38.93
2023-07-17T15:52:18.900Z,38.82
2023-07-17T15:54:46.129Z,39.72
2023-07-17T15:57:13.658Z,38.56
2023-07-17T15:59:41.177Z,39.32
2023-07-17T16:02:08.534Z,40.96
2023-07-17T16:04:35.791Z,40.68
2023-07-17T16:07:03.117Z,40.66
2023-07-17T16:09:30.852Z,40.15
2023-07-17T16:11:58.125Z,39.59
2023-07-17T16:14:25.466Z,40.15
2023-07-17T16:16:53.121Z,41.77
2023-07-17T16:19:20.397Z,40.37
2023-07-17T16:21:47.842Z,41.51
2023-07-17T16:24:15.063Z,40.06
2023-07-17T16:26:42.317Z,40.59
2023-07-17T16:29:09.544Z,41.90
2023-07-17T16:31:37.786Z,41.41
2023-07-17T16:34:05.288Z,42.35
2023-07-17T16:36:34.001Z,43.19
2023-07-17T16:39:01.347Z,42.11
2023-07-17T16:41:28.747Z,42.04
2023-07-17T16:43:56.273Z,42.62
2023-07-17T16:46:23.475Z,43.71
2023-07-17T16:48:51.739Z,43.62
2023-07-17T16:51:19.318Z,43.50
2023-07-17T16:53:47.142Z,42.65
2023-07-17T16:56:14.460Z,44.48
2023-07-17T16:58:43.926Z,44.94
2023-07-17T17:01:11.348Z,44.55
2023-07-17T17:03:38.785Z,43.50
2023-07-17T17:06:06.540Z,44.77
2023-07-17T17:08:33.936Z,45.50
2023-07-17T17:11:01.424Z,44.40
2023-07-17T17:13:28.813Z,45.15
2023-07-17T17:15:57.884Z,44.14
2023-07-17T17:18:25.933Z,45.09
2023-07-17T17:20:53.359Z,45.80
2023-07-17T17:23:20.633Z,45.91
2023-07-17T17:25:48.083Z,46.81
2023-07-17T17:28:15.377Z,46.67
2023-07-17T17:30:42.888Z,47.12
2023-07-17T17:33:10.839Z,48.05
2023-07-17T17:35:38.123Z,46.80
2023-07-17T17:38:10.137Z,47.30
2023-07-17T17:40:39.515Z,48.24
2023-07-17T17:43:06.830Z,47.89
2023-07-17T17:45:34.028Z,49.06
2023-07-17T17:48:01.359Z,47.29
2023-07-17T17:50:32.192Z,46.82
2023-07-17T17:53:03.324Z,47.86
2023-07-17T17:55:30.561Z,48.24
2023-07-17T17:57:57.914Z,48.32
2023-07-17T18:00:25.269Z,49.59
2023-07-17T18:02:55.951Z,49.25
2023-07-17T18:05:23.553Z,50.59
2023-07-17T18:07:50.929Z,50.04
2023-07-17T18:10:19.826Z,50.76
2023-07-17T18:12:47.159Z,49.34
2023-07-17T18:15:14.628Z,49.41
2023-07-17T18:17:42.339Z,50.15
2023-07-17T18:20:12.159Z,48.81
2023-07-17T18:22:39.512Z,48.79
2023-07-17T18:25:07.795Z,49.70
2023-07-17T18:27:35.772Z,48.83
2023-07-17T18:30:03.101Z,49.74
2023-07-17T18:32:30.433Z,49.27
2023-07-17T18:34:57.828Z,49.92
2023-07-17T18:37:25.181Z,49.98
2023-07-17T18:39:52.528Z,50.13
2023-07-17T18:42:21.224Z,49.73
2023-07-17T18:44:49.124Z,50.06
2023-07-17T18:47:16.880Z,49.85
2023-07-17T18:49:44.428Z,50.82
2023-07-17T18:52:11.999Z,51.59
2023-07-17T18:54:41.631Z,50.89
2023-07-17T18:57:08.966Z,50.61
2023-07-17T18:59:36.494Z,50.44
2023-07-17T19:02:05.432Z,50.66
2023-07-17T19:04:34.504Z,50.59
2023-07-17T19:07:01.961Z,50.87
2023-07-17T19:09:29.640Z,50.68
2023-07-17T19:11:57.789Z,51.44
2023-07-17T19:14:26.943Z,52.22
2023-07-17T19:16:55.998Z,51.06
2023-07-17T19:19:23.371Z,51.24
2023-07-17T19:21:50.718Z,52.35
2023-07-17T19:24:18.086Z,52.01
2023-07-17T19:26:45.928Z,51.82
2023-07-17T19:29:14.665Z,50.77
2023-07-17T19:31:42.130Z,52.69
2023-07-17T19:34:09.635Z,52.39
2023-07-17T19:36:39.262Z,52.18
2023-07-17T19:39:06.923Z,52.47
2023-07-17T19:41:34.609Z,51.94
2023-07-17T19:44:02.089Z,51.99
2023-07-17T19:46:30.661Z,53.54
2023-07-17T19:49:00.527Z,52.52
2023-07-17T19:51:28.156Z,53.05
2023-07-17T19:53:55.639Z,52.67
2023-07-17T19:56:23.210Z,54.19
2023-07-17T19:58:55.304Z,54.00
2023-07-17T20:01:23.553Z,53.75
2023-07-17T20:03:51.501Z,54.00
2023-07-17T20:06:20.570Z,53.96
2023-07-17T20:08:48.703Z,53.96
2023-07-17T20:11:16.392Z,53.38
2023-07-17T20:13:44.031Z,54.57
2023-07-17T20:16:11.422Z,55.66
2023-07-17T20:18:38.915Z,54.46
2023-07-17T20:21:06.334Z,56.21
2023-07-17T20:23:33.650Z,56.23
2023-07-17T20:26:01.006Z,56.38
2023-07-17T20:28:28.375Z,56.23
2023-07-17T20:30:55.743Z,56.25
2023-07-17T20:33:23.868Z,57.26
2023-07-17T20:35:52.159Z,56.99
2023-07-17T20:38:20.957Z,57.11
2023-07-17T20:40:49.235Z,57.70
2023-07-17T20:43:16.681Z,57.91
2023-07-17T20:45:49.658Z,57.82
2023-07-17T20:48:17.159Z,58.20
2023-07-17T20:51:03.971Z,58.25
2023-07-17T20:53:31.788Z,58.34
2023-07-17T20:55:59.403Z,58.88
2023-07-17T20:58:26.858Z,59.64
2023-07-17T21:00:59.482Z,59.89
2023-07-17T21:03:27.331Z,60.20
2023-07-17T21:05:54.915Z,60.60
2023-07-17T21:08:23.439Z,61.23
2023-07-17T21:10:50.848Z,62.16
2023-07-17T21:13:18.096Z,61.64
2023-07-17T21:15:45.539Z,62.25
2023-07-17T21:18:15.528Z,63.10
2023-07-17T21:20:43.344Z,65.22
2023-07-17T21:23:10.690Z,64.69
2023-07-17T21:25:39.226Z,64.37
2023-07-17T21:28:10.273Z,64.84
2023-07-17T21:30:38.009Z,65.63
2023-07-17T21:33:07.939Z,66.04
2023-07-17T21:35:35.236Z,66.14
2023-07-17T21:38:02.942Z,68.50
2023-07-17T21:40:30.343Z,68.83
2023-07-17T21:42:57.733Z,68.86
2023-07-17T21:45:27.221Z,68.63
2023-07-17T21:47:54.488Z,68.37
2023-07-17T21:50:21.958Z,67.79
2023-07-17T21:52:49.570Z,72.69
2023-07-17T21:55:16.863Z,80.21
2023-07-17T21:57:44.610Z,89.34
2023-07-17T22:00:14.146Z,100.00
2023-07-17T22:02:44.668Z,100.00
2023-07-17T22:05:13.632Z,100.00
2023-07-17T22:07:41.512Z,100.00
2023-07-17T22:10:09.286Z,100.00
2023-07-17T22:12:36.691Z,100.00
2023-07-17T22:15:04.236Z,100.00
2023-07-17T22:17:31.672Z,100.00
2023-07-17T22:19:59.029Z,100.00
2023-07-17T22:22:26.346Z,100.00
2023-07-17T22:24:53.974Z,100.00
2023-07-17T22:27:21.979Z,100.00
2023-07-17T22:29:49.757Z,100.00
2023-07-17T22:32:17.129Z,100.00
2023-07-17T22:34:46.665Z,100.00
2023-07-17T22:37:19.126Z,100.00
2023-07-17T22:39:46.784Z,100.00
2023-07-17T22:42:16.123Z,100.00
2023-07-17T22:44:44.059Z,100.00
2023-07-17T22:47:11.696Z,100.00
2023-07-17T22:49:39.050Z,100.00
2023-07-17T22:52:07.253Z,100.00
2023-07-17T22:54:36.931Z,100.00
2023-07-17T22:57:06.365Z,100.00
2023-07-17T22:59:37.179Z,100.00
2023-07-17T23:02:06.457Z,100.00
2023-07-17T23:04:33.830Z,100.00
2023-07-17T23:07:08.820Z,100.00
2023-07-17T23:09:36.928Z,100.00
2023-07-17T23:12:07.849Z,100.00
2023-07-17T23:14:36.643Z,100.00
2023-07-17T23:17:04.830Z,100.00
2023-07-17T23:19:33.133Z,100.00
2023-07-17T23:22:00.618Z,100.00
2023-07-17T23:24:28.224Z,100.00
2023-07-17T23:26:55.487Z,100.00
2023-07-17T23:29:23.554Z,100.00
2023-07-17T23:31:51.826Z,100.00
2023-07-17T23:34:22.225Z,100.00
2023-07-17T23:36:50.506Z,100.00
2023-07-17T23:39:19.228Z,100.00
2023-07-17T23:41:51.060Z,100.00
2023-07-17T23:44:18.794Z,100.00
2023-07-17T23:46:46.268Z,100.00
2023-07-17T23:49:13.793Z,100.00
2023-07-17T23:51:41.103Z,100.00
2023-07-17T23:54:08.637Z,100.00
2023-07-17T23:56:36.279Z,100.00
2023-07-17T23:59:03.683Z,100.00
